Time;durP1;ratioP1;P1;durP2;ratioP2;P2;SDS_P1;SDS_P2;PMS_P1;PMS_P2;Temp;Humidity;BMP_temperature;BMP_pressure;BME280_temperature;BME280_humidity;BME280_pressure;Samples;Min_cycle;Max_cycle;Signal;HPM_P1;HPM_P2
2023/08/30 00:01:46;;;;;;;1.80;1.70;;;15.70;99.90;;;;;;5074301;28;20648;-66
2023/08/30 00:04:13;;;;;;;3.10;1.90;;;15.70;99.90;;;;;;5066705;28;20276;-66
2023/08/30 00:06:40;;;;;;;3.73;2.30;;;15.70;99.90;;;;;;5066392;28;20294;-66
2023/08/30 00:09:08;;;;;;;2.40;2.20;;;15.70;99.90;;;;;;5070639;28;20246;-66
2023/08/30 00:11:35;;;;;;;2.17;2.00;;;15.70;99.90;;;;;;5066398;28;20203;-66
2023/08/30 00:14:06;;;;;;;2.20;2.00;;;15.70;99.90;;;;;;5066367;28;20822;-66
2023/08/30 00:16:34;;;;;;;2.40;2.20;;;15.70;99.90;;;;;;5066681;28;20326;-66
2023/08/30 00:19:01;;;;;;;2.37;2.20;;;15.70;99.90;;;;;;5066558;28;20239;-66
2023/08/30 00:21:28;;;;;;;2.30;2.10;;;15.70;99.90;;;;;;5085836;28;20689;-65
2023/08/30 00:23:55;;;;;;;2.63;2.10;;;15.70;99.90;;;;;;5075052;28;20232;-66
2023/08/30 00:26:22;;;;;;;2.10;2.00;;;15.70;99.90;;;;;;5084528;28;20296;-65
2023/08/30 00:28:49;;;;;;;2.80;2.50;;;15.70;99.90;;;;;;5085874;28;20681;-66
2023/08/30 00:31:16;;;;;;;1.93;1.83;;;15.70;99.90;;;;;;5075275;28;20310;-66
2023/08/30 00:33:44;;;;;;;2.43;2.10;;;15.70;99.90;;;;;;5066042;28;20573;-65
2023/08/30 00:36:11;;;;;;;2.07;1.97;;;15.70;99.90;;;;;;5065928;28;20290;-66
2023/08/30 00:38:38;;;;;;;2.17;2.00;;;15.60;99.90;;;;;;5069184;28;20290;-66
2023/08/30 00:41:05;;;;;;;2.53;2.00;;;15.60;99.90;;;;;;5106555;28;20216;-65
2023/08/30 00:43:32;;;;;;;2.40;1.90;;;15.60;99.90;;;;;;5086998;28;20310;-65
2023/08/30 00:45:59;;;;;;;2.87;2.30;;;15.60;99.90;;;;;;5086092;28;20290;-66
2023/08/30 00:48:26;;;;;;;2.60;2.40;;;15.60;99.90;;;;;;5086364;28;20685;-66
2023/08/30 00:50:54;;;;;;;2.03;1.90;;;15.60;99.90;;;;;;5073529;28;20322;-66
2023/08/30 00:53:21;;;;;;;2.43;2.23;;;15.50;99.90;;;;;;5065977;28;20242;-66
2023/08/30 00:55:48;;;;;;;2.30;2.10;;;15.50;99.90;;;;;;5085698;28;20203;-66
2023/08/30 00:58:15;;;;;;;2.27;2.00;;;15.50;99.90;;;;;;5071828;28;20330;-66
2023/08/30 01:00:42;;;;;;;2.17;2.07;;;15.50;99.90;;;;;;5080497;28;20226;-66
2023/08/30 01:03:09;;;;;;;2.33;2.23;;;15.40;99.90;;;;;;5085593;28;20207;-66
2023/08/30 01:05:36;;;;;;;2.00;1.90;;;15.40;99.90;;;;;;5085083;28;20248;-66
2023/08/30 01:08:05;;;;;;;2.50;2.40;;;15.30;99.90;;;;;;5084917;28;20302;-66
2023/08/30 01:10:45;;;;;;;2.43;2.33;;;15.30;99.90;;;;;;5068032;28;20214;-66
2023/08/30 01:13:17;;;;;;;2.13;2.03;;;15.30;99.90;;;;;;5065637;28;20219;-66
2023/08/30 01:15:47;;;;;;;2.53;2.30;;;15.30;99.90;;;;;;5069343;28;20227;-66
2023/08/30 01:18:14;;;;;;;2.30;2.07;;;15.30;99.90;;;;;;5081357;28;20235;-66
2023/08/30 01:20:44;;;;;;;2.13;2.03;;;15.30;99.90;;;;;;5083801;28;20290;-66
2023/08/30 01:23:21;;;;;;;4.07;2.30;;;15.20;99.90;;;;;;5065527;28;20232;-66
2023/08/30 01:25:56;;;;;;;2.70;2.27;;;15.20;99.90;;;;;;5065583;28;20261;-66
2023/08/30 01:28:27;;;;;;;2.33;2.23;;;15.20;99.90;;;;;;5065664;28;20277;-66
2023/08/30 01:30:55;;;;;;;3.00;2.30;;;15.30;99.90;;;;;;5064810;28;20746;-66
2023/08/30 01:33:23;;;;;;;2.90;2.10;;;15.30;99.90;;;;;;5065397;28;20575;-66
2023/08/30 01:35:51;;;;;;;2.63;2.40;;;15.20;99.90;;;;;;5064805;28;20302;-65
2023/08/30 01:38:18;;;;;;;2.80;2.20;;;15.30;99.90;;;;;;5067278;28;20202;-66
2023/08/30 01:40:45;;;;;;;3.10;2.30;;;15.30;99.90;;;;;;5063956;28;20230;-66
2023/08/30 01:43:13;;;;;;;2.27;2.17;;;15.30;99.90;;;;;;5064984;28;20243;-66
2023/08/30 01:45:43;;;;;;;2.23;2.10;;;15.30;99.90;;;;;;5064997;28;20231;-67
2023/08/30 01:48:12;;;;;;;2.60;2.40;;;15.30;99.90;;;;;;5083380;28;20625;-66
2023/08/30 01:50:41;;;;;;;2.40;2.20;;;15.20;99.90;;;;;;5084614;28;21045;-66
2023/08/30 01:53:09;;;;;;;2.40;2.30;;;15.30;99.90;;;;;;5081898;28;20226;-66
2023/08/30 01:55:37;;;;;;;2.30;2.13;;;15.30;99.90;;;;;;5064542;28;21046;-66
2023/08/30 01:58:06;;;;;;;2.40;2.20;;;15.30;99.90;;;;;;5069970;28;20206;-66
2023/08/30 02:00:33;;;;;;;2.30;2.07;;;15.20;99.90;;;;;;5084806;28;20431;-66
2023/08/30 02:03:09;;;;;;;2.60;2.40;;;15.10;99.90;;;;;;5084739;28;20646;-66
2023/08/30 02:05:40;;;;;;;4.10;2.20;;;15.00;99.90;;;;;;5084575;28;20263;-66
2023/08/30 02:08:14;;;;;;;2.30;2.20;;;15.00;99.90;;;;;;5084523;28;20626;-66
2023/08/30 02:10:46;;;;;;;2.40;2.20;;;15.00;99.90;;;;;;5066562;28;20497;-65
2023/08/30 02:13:13;;;;;;;2.07;1.97;;;15.10;99.90;;;;;;5078768;28;20567;-65
2023/08/30 02:15:42;;;;;;;2.87;2.33;;;15.00;99.90;;;;;;5085066;28;20298;-66
2023/08/30 02:18:11;;;;;;;2.33;2.23;;;15.00;99.90;;;;;;5084618;28;20297;-65
2023/08/30 02:20:38;;;;;;;3.43;1.90;;;15.00;99.90;;;;;;5084678;28;20309;-66
2023/08/30 02:23:05;;;;;;;2.27;2.17;;;14.90;99.90;;;;;;5083403;28;20317;-65
2023/08/30 02:25:32;;;;;;;2.27;2.03;;;14.90;99.90;;;;;;5084488;28;20238;-65
2023/08/30 02:27:58;;;;;;;2.10;2.00;;;14.90;99.90;;;;;;5068113;28;20331;-65
2023/08/30 02:30:25;;;;;;;2.97;2.40;;;15.00;99.90;;;;;;5066708;28;20199;-65
2023/08/30 02:32:52;;;;;;;2.33;2.10;;;15.00;99.90;;;;;;5076779;28;20210;-65
2023/08/30 02:35:20;;;;;;;2.40;2.00;;;15.00;99.90;;;;;;5077460;28;20211;-65
2023/08/30 02:37:47;;;;;;;2.00;1.90;;;15.00;99.90;;;;;;5082457;28;20290;-65
2023/08/30 02:40:14;;;;;;;1.90;1.80;;;15.10;99.90;;;;;;5067826;28;20219;-65
2023/08/30 02:42:41;;;;;;;2.00;1.80;;;15.10;99.90;;;;;;5062470;28;20326;-65
2023/08/30 02:45:09;;;;;;;2.50;1.93;;;15.10;99.90;;;;;;5062995;28;20222;-65
2023/08/30 02:47:36;;;;;;;1.60;1.60;;;15.10;99.90;;;;;;5062423;28;20299;-65
2023/08/30 02:50:03;;;;;;;2.00;1.90;;;15.00;99.90;;;;;;5072786;28;20334;-65
2023/08/30 02:52:32;;;;;;;2.30;1.87;;;15.00;99.90;;;;;;5083975;28;20207;-65
2023/08/30 02:54:58;;;;;;;1.90;1.80;;;15.00;99.90;;;;;;5086748;28;20210;-65
2023/08/30 02:57:25;;;;;;;2.20;2.10;;;15.00;99.90;;;;;;5069158;28;20294;-66
2023/08/30 02:59:52;;;;;;;2.00;1.90;;;15.00;99.90;;;;;;5078457;28;20254;-65
2023/08/30 03:02:19;;;;;;;4.03;1.70;;;15.00;99.90;;;;;;5086152;28;20941;-65
2023/08/30 03:04:46;;;;;;;1.80;1.67;;;15.00;99.90;;;;;;5086586;28;20233;-65
2023/08/30 03:07:13;;;;;;;1.80;1.70;;;15.00;99.90;;;;;;5084885;28;20211;-65
2023/08/30 03:09:41;;;;;;;2.37;2.17;;;15.00;99.90;;;;;;5076762;28;20709;-65
2023/08/30 03:12:08;;;;;;;2.00;1.90;;;15.10;99.90;;;;;;5106437;28;20293;-65
2023/08/30 03:14:35;;;;;;;2.10;2.00;;;15.10;99.90;;;;;;5093315;28;20221;-65
2023/08/30 03:17:02;;;;;;;4.77;2.10;;;15.10;99.90;;;;;;5086532;28;20325;-66
2023/08/30 03:19:31;;;;;;;2.20;2.00;;;15.00;99.90;;;;;;5087441;28;20293;-65
2023/08/30 03:22:00;;;;;;;3.37;2.03;;;15.10;99.90;;;;;;5086841;28;20231;-66
2023/08/30 03:24:27;;;;;;;2.37;2.00;;;15.00;99.90;;;;;;5087522;28;20222;-66
2023/08/30 03:26:55;;;;;;;2.67;2.07;;;15.00;99.90;;;;;;5087722;28;20970;-65
2023/08/30 03:29:22;;;;;;;2.13;2.03;;;15.00;99.90;;;;;;5087762;28;20206;-66
2023/08/30 03:31:49;;;;;;;2.10;2.00;;;15.00;99.90;;;;;;5071362;28;20235;-65
2023/08/30 03:34:16;;;;;;;2.13;2.03;;;15.00;99.90;;;;;;5067008;28;20675;-65
2023/08/30 03:36:43;;;;;;;2.13;1.80;;;15.00;99.90;;;;;;5066622;28;20211;-65
2023/08/30 03:39:12;;;;;;;2.23;2.03;;;15.00;99.90;;;;;;5068966;28;20212;-66
2023/08/30 03:41:39;;;;;;;1.90;1.80;;;15.00;99.90;;;;;;5066781;28;20238;-65
2023/08/30 03:44:07;;;;;;;2.13;2.00;;;15.00;99.90;;;;;;5066376;28;20269;-65
2023/08/30 03:46:34;;;;;;;2.37;2.17;;;15.00;99.90;;;;;;5068758;28;20987;-65
2023/08/30 03:49:01;;;;;;;5.17;3.20;;;14.90;99.90;;;;;;5067062;28;20297;-65
2023/08/30 03:51:28;;;;;;;3.47;2.73;;;14.90;99.90;;;;;;5066906;28;20322;-65
2023/08/30 03:53:56;;;;;;;2.80;2.60;;;14.90;99.90;;;;;;5075516;28;20309;-66
2023/08/30 03:56:22;;;;;;;5.00;2.20;;;14.80;99.90;;;;;;5087787;28;20217;-65
2023/08/30 03:58:49;;;;;;;2.00;1.90;;;14.80;99.90;;;;;;5087267;28;20879;-65
2023/08/30 04:01:18;;;;;;;3.23;2.10;;;14.80;99.90;;;;;;5086511;28;20242;-66
2023/08/30 04:03:45;;;;;;;2.80;2.60;;;14.80;99.90;;;;;;5085966;28;20657;-65
2023/08/30 04:06:11;;;;;;;2.17;2.00;;;14.80;99.90;;;;;;5086330;28;20316;-65
2023/08/30 04:08:38;;;;;;;1.97;1.87;;;14.80;99.90;;;;;;5086167;28;20291;-65
2023/08/30 04:11:05;;;;;;;2.30;2.20;;;14.80;99.90;;;;;;5086288;28;20302;-65
2023/08/30 04:13:33;;;;;;;2.50;2.30;;;14.90;99.90;;;;;;5085809;28;20198;-65
2023/08/30 04:16:00;;;;;;;4.60;2.57;;;14.90;99.90;;;;;;5086373;28;20211;-65
2023/08/30 04:18:28;;;;;;;2.37;2.20;;;14.80;99.90;;;;;;5086144;28;20310;-65
2023/08/30 04:20:55;;;;;;;2.50;2.30;;;14.80;99.90;;;;;;5086369;28;20238;-65
2023/08/30 04:23:22;;;;;;;2.30;2.10;;;14.90;99.90;;;;;;5086226;28;20280;-65
2023/08/30 04:25:49;;;;;;;2.60;2.40;;;14.90;99.90;;;;;;5086256;28;20276;-65
2023/08/30 04:28:16;;;;;;;2.40;2.30;;;14.90;99.90;;;;;;5086309;28;20839;-65
2023/08/30 04:30:43;;;;;;;2.50;2.23;;;14.90;99.90;;;;;;5086044;28;20290;-65
2023/08/30 04:33:10;;;;;;;2.50;2.30;;;14.90;99.90;;;;;;5085760;28;20242;-65
2023/08/30 04:35:38;;;;;;;2.73;2.53;;;14.90;99.90;;;;;;5086136;28;20294;-65
2023/08/30 04:38:06;;;;;;;2.60;2.50;;;14.80;99.90;;;;;;5085416;28;20573;-65
2023/08/30 04:40:32;;;;;;;2.50;2.40;;;14.70;99.90;;;;;;5103669;28;20289;-65
2023/08/30 04:43:00;;;;;;;2.30;2.20;;;14.80;99.90;;;;;;5094195;28;20215;-65
2023/08/30 04:45:27;;;;;;;2.90;2.70;;;14.80;99.90;;;;;;5085604;28;20329;-66
2023/08/30 04:47:54;;;;;;;2.90;2.70;;;14.80;99.90;;;;;;5085777;28;20207;-65
2023/08/30 04:50:21;;;;;;;3.43;3.13;;;14.90;99.90;;;;;;5085817;28;20211;-65
2023/08/30 04:52:49;;;;;;;2.60;2.40;;;14.90;99.90;;;;;;5085072;28;20203;-65
2023/08/30 04:55:16;;;;;;;3.70;2.80;;;15.00;99.90;;;;;;5085571;28;20649;-65
2023/08/30 04:57:44;;;;;;;2.80;2.70;;;15.00;99.90;;;;;;5085283;28;20230;-65
2023/08/30 05:00:13;;;;;;;3.23;2.63;;;15.10;99.90;;;;;;5085453;28;20248;-65
2023/08/30 05:02:40;;;;;;;3.23;2.43;;;15.10;99.90;;;;;;5085212;28;20293;-65
2023/08/30 05:05:08;;;;;;;2.63;2.37;;;15.10;99.90;;;;;;5084552;28;20235;-65
2023/08/30 05:07:35;;;;;;;2.80;2.40;;;15.10;99.90;;;;;;5079278;28;20214;-65
2023/08/30 05:10:03;;;;;;;3.57;2.87;;;15.20;99.90;;;;;;5072485;28;20348;-65
2023/08/30 05:12:30;;;;;;;2.80;2.60;;;15.10;99.90;;;;;;5065272;28;20208;-65
2023/08/30 05:14:57;;;;;;;2.30;2.20;;;15.10;99.90;;;;;;5064812;28;20221;-65
2023/08/30 05:17:25;;;;;;;2.97;2.77;;;15.10;99.90;;;;;;5065430;28;20215;-65
2023/08/30 05:19:52;;;;;;;2.70;2.50;;;15.20;99.90;;;;;;5064780;28;20211;-65
2023/08/30 05:22:18;;;;;;;2.80;2.60;;;15.20;99.90;;;;;;5064540;28;20314;-65
2023/08/30 05:24:45;;;;;;;3.10;2.50;;;15.20;99.90;;;;;;5064216;28;20251;-65
2023/08/30 05:27:14;;;;;;;3.53;2.53;;;15.30;99.90;;;;;;5064829;28;20266;-65
2023/08/30 05:29:41;;;;;;;4.63;2.60;;;15.30;99.90;;;;;;5064192;28;20576;-65
2023/08/30 05:32:08;;;;;;;2.77;2.60;;;15.40;99.90;;;;;;5064912;28;20292;-65
2023/08/30 05:34:35;;;;;;;3.87;3.10;;;15.40;99.90;;;;;;5064834;28;20207;-65
2023/08/30 05:37:02;;;;;;;2.77;2.57;;;15.40;99.90;;;;;;5064368;28;20674;-65
2023/08/30 05:39:29;;;;;;;2.50;2.40;;;15.40;99.90;;;;;;5073171;28;20215;-65
2023/08/30 05:41:56;;;;;;;3.67;2.70;;;15.40;99.90;;;;;;5084752;28;20214;-65
2023/08/30 05:44:24;;;;;;;2.70;2.50;;;15.40;99.90;;;;;;5084754;28;20297;-65
2023/08/30 05:46:51;;;;;;;2.97;2.77;;;15.40;99.90;;;;;;5084458;28;20238;-65
2023/08/30 05:49:18;;;;;;;2.40;2.20;;;15.40;99.90;;;;;;5084647;28;20210;-65
2023/08/30 05:51:45;;;;;;;2.73;2.63;;;15.50;99.90;;;;;;5084442;28;20207;-65
2023/08/30 05:54:12;;;;;;;2.77;2.43;;;15.50;99.90;;;;;;5084443;28;20309;-65
2023/08/30 05:56:38;;;;;;;2.63;2.50;;;15.60;99.90;;;;;;5083425;28;20210;-65
2023/08/30 05:59:05;;;;;;;2.77;2.67;;;15.70;99.90;;;;;;5064156;28;20736;-65
2023/08/30 06:01:35;;;;;;;2.70;2.50;;;15.70;99.90;;;;;;5063967;28;20679;-65
2023/08/30 06:04:04;;;;;;;2.93;2.83;;;15.70;99.90;;;;;;5083108;28;20642;-65
2023/08/30 06:06:31;;;;;;;3.07;2.80;;;15.80;99.90;;;;;;5084505;28;20237;-65
2023/08/30 06:08:59;;;;;;;2.90;2.70;;;15.70;99.90;;;;;;5080124;28;20302;-65
2023/08/30 06:11:26;;;;;;;3.37;3.03;;;15.60;99.90;;;;;;5064622;28;20204;-65
2023/08/30 06:13:52;;;;;;;4.07;2.70;;;15.60;99.90;;;;;;5064203;28;20247;-65
2023/08/30 06:16:19;;;;;;;3.20;2.40;;;15.50;99.90;;;;;;5064987;28;20298;-65
2023/08/30 06:18:48;;;;;;;2.70;2.60;;;15.60;99.90;;;;;;5064741;28;20211;-65
2023/08/30 06:21:14;;;;;;;3.00;2.40;;;15.70;99.90;;;;;;5064565;28;20233;-65
2023/08/30 06:23:41;;;;;;;2.90;2.80;;;15.80;99.90;;;;;;5063596;28;20284;-65
2023/08/30 06:26:08;;;;;;;2.80;2.70;;;15.80;99.90;;;;;;5063767;28;20580;-65
2023/08/30 06:28:35;;;;;;;2.70;2.50;;;15.80;99.90;;;;;;5066958;28;20256;-65
2023/08/30 06:31:02;;;;;;;2.57;2.47;;;15.80;99.90;;;;;;5067623;28;20306;-65
2023/08/30 06:33:29;;;;;;;3.87;2.30;;;15.90;99.90;;;;;;5067969;28;20213;-65
2023/08/30 06:35:57;;;;;;;2.90;2.70;;;15.90;99.90;;;;;;5085545;28;20214;-65
2023/08/30 06:38:24;;;;;;;3.97;2.70;;;15.90;99.90;;;;;;5087726;28;20876;-65
2023/08/30 06:40:51;;;;;;;2.50;2.40;;;15.90;99.90;;;;;;5068079;28;20658;-65
2023/08/30 06:43:18;;;;;;;3.33;2.90;;;15.90;99.90;;;;;;5081902;28;20674;-65
2023/08/30 06:45:46;;;;;;;2.80;2.60;;;15.90;99.90;;;;;;5088261;28;20757;-65
2023/08/30 06:48:13;;;;;;;3.23;2.80;;;15.90;99.90;;;;;;5088575;28;20322;-65
2023/08/30 06:50:40;;;;;;;5.00;2.97;;;15.90;99.90;;;;;;5088148;28;20310;-65
2023/08/30 06:53:09;;;;;;;3.00;2.80;;;15.90;99.90;;;;;;5087680;28;20750;-65
2023/08/30 06:55:36;;;;;;;2.77;2.50;;;16.00;99.90;;;;;;5088132;28;20203;-65
2023/08/30 06:58:04;;;;;;;4.93;2.70;;;16.00;99.90;;;;;;5087779;28;20206;-65
2023/08/30 07:00:30;;;;;;;3.23;3.00;;;16.00;99.90;;;;;;5087384;28;20350;-65
2023/08/30 07:02:57;;;;;;;2.63;2.40;;;16.00;99.90;;;;;;5087636;28;20207;-65
2023/08/30 07:05:24;;;;;;;3.37;2.47;;;16.00;99.90;;;;;;5087565;28;20793;-65
2023/08/30 07:07:51;;;;;;;3.07;2.07;;;16.10;99.90;;;;;;5087370;28;20312;-65
2023/08/30 07:10:19;;;;;;;3.57;2.70;;;16.10;99.90;;;;;;5102872;28;20767;-65
2023/08/30 07:12:48;;;;;;;3.27;2.63;;;16.10;99.90;;;;;;5107536;28;20241;-65
2023/08/30 07:15:17;;;;;;;2.60;2.50;;;16.10;99.90;;;;;;5107649;28;20214;-65
2023/08/30 07:17:44;;;;;;;3.90;2.40;;;16.10;99.90;;;;;;5107738;28;20210;-65
2023/08/30 07:20:11;;;;;;;4.10;2.67;;;16.10;99.90;;;;;;5107849;28;20668;-65
2023/08/30 07:22:38;;;;;;;2.67;2.53;;;16.10;99.90;;;;;;5107521;28;20666;-65
2023/08/30 07:25:06;;;;;;;2.60;2.40;;;16.10;99.90;;;;;;5088729;28;20321;-65
2023/08/30 07:27:35;;;;;;;2.00;1.90;;;16.10;99.90;;;;;;5087674;28;20210;-65
2023/08/30 07:30:02;;;;;;;2.40;2.30;;;16.20;99.90;;;;;;5087050;28;20242;-65
2023/08/30 07:32:29;;;;;;;2.10;2.00;;;16.20;99.90;;;;;;5102052;28;20572;-65
2023/08/30 07:34:56;;;;;;;2.47;2.27;;;16.30;99.90;;;;;;5107646;28;20202;-65
2023/08/30 07:37:23;;;;;;;2.43;2.13;;;16.30;99.90;;;;;;5107161;28;20724;-65
2023/08/30 07:39:52;;;;;;;2.40;1.90;;;16.40;99.90;;;;;;5094241;28;20852;-66
2023/08/30 07:42:19;;;;;;;7.80;2.73;;;16.40;99.90;;;;;;5087263;28;20648;-65
2023/08/30 07:44:47;;;;;;;2.90;2.10;;;16.40;99.90;;;;;;5086807;28;20236;-65
2023/08/30 07:47:14;;;;;;;2.20;2.10;;;16.40;99.90;;;;;;5087137;28;20321;-65
2023/08/30 07:49:42;;;;;;;2.77;1.70;;;16.50;99.90;;;;;;5087276;28;20284;-65
2023/08/30 07:52:10;;;;;;;2.20;2.00;;;16.60;99.90;;;;;;5086369;28;20634;-65
2023/08/30 07:54:38;;;;;;;1.80;1.70;;;16.60;99.90;;;;;;5086535;28;20244;-65
2023/08/30 07:57:05;;;;;;;2.00;1.90;;;16.70;99.90;;;;;;5086848;28;20293;-65
2023/08/30 07:59:34;;;;;;;2.10;2.00;;;16.70;99.90;;;;;;5086347;28;20377;-65
2023/08/30 08:02:02;;;;;;;2.10;2.00;;;16.70;99.90;;;;;;5086643;28;20529;-65
2023/08/30 08:04:29;;;;;;;2.70;2.47;;;16.80;99.90;;;;;;5086795;28;20224;-65
2023/08/30 08:06:56;;;;;;;2.60;2.40;;;16.80;99.90;;;;;;5086435;28;20318;-65
2023/08/30 08:09:23;;;;;;;2.70;2.50;;;16.80;99.90;;;;;;5085953;28;20668;-65
2023/08/30 08:11:50;;;;;;;2.13;2.00;;;16.80;99.90;;;;;;5086602;28;20311;-65
2023/08/30 08:14:17;;;;;;;2.00;1.90;;;16.80;99.90;;;;;;5085951;28;20297;-65
2023/08/30 08:16:44;;;;;;;2.37;2.27;;;16.90;99.90;;;;;;5086495;28;20302;-65
2023/08/30 08:19:12;;;;;;;2.83;2.20;;;16.90;99.90;;;;;;5086443;28;20290;-65
2023/08/30 08:21:39;;;;;;;2.80;2.30;;;17.00;99.90;;;;;;5086479;28;20241;-65
2023/08/30 08:24:07;;;;;;;2.87;1.97;;;17.00;99.90;;;;;;5085949;28;20230;-66
2023/08/30 08:26:33;;;;;;;2.20;1.97;;;17.10;99.90;;;;;;5085988;28;20257;-65
2023/08/30 08:29:00;;;;;;;1.97;1.87;;;17.10;99.90;;;;;;5083116;28;20310;-65
2023/08/30 08:31:28;;;;;;;2.10;2.00;;;17.20;99.90;;;;;;5072911;28;20199;-65
2023/08/30 08:34:09;;;;;;;2.10;1.90;;;17.20;99.90;;;;;;5065284;28;20780;-65
2023/08/30 08:36:38;;;;;;;2.40;2.30;;;17.30;99.90;;;;;;5065934;28;20299;-65
2023/08/30 08:39:05;;;;;;;2.07;1.97;;;17.30;99.90;;;;;;5070793;28;20301;-65
2023/08/30 08:41:39;;;;;;;2.77;2.10;;;17.40;99.90;;;;;;5086376;28;20669;-65
2023/08/30 08:44:06;;;;;;;2.27;2.00;;;17.40;99.90;;;;;;5086693;28;20238;-66
2023/08/30 08:46:35;;;;;;;2.43;2.03;;;17.50;99.90;;;;;;5086029;28;20230;-65
2023/08/30 08:49:05;;;;;;;2.17;2.07;;;17.50;99.90;;;;;;5086018;28;20306;-65
2023/08/30 08:51:35;;;;;;;2.83;1.90;;;17.60;99.90;;;;;;5085686;28;20293;-65
2023/08/30 08:54:05;;;;;;;1.90;1.77;;;17.60;99.90;;;;;;5085538;28;20206;-65
2023/08/30 08:56:33;;;;;;;2.60;1.90;;;17.70;99.90;;;;;;5085580;28;20273;-65
2023/08/30 08:59:00;;;;;;;2.70;1.90;;;17.80;99.90;;;;;;5085327;28;20203;-65
2023/08/30 09:01:28;;;;;;;3.70;2.27;;;17.80;99.90;;;;;;5085112;28;20329;-65
2023/08/30 09:03:55;;;;;;;1.97;1.70;;;17.80;99.90;;;;;;5084972;28;20210;-65
2023/08/30 09:06:23;;;;;;;2.20;2.10;;;17.90;99.90;;;;;;5085653;28;20315;-65
2023/08/30 09:08:49;;;;;;;1.70;1.60;;;17.90;99.90;;;;;;5085018;28;20214;-65
2023/08/30 09:11:18;;;;;;;1.80;1.70;;;18.00;99.90;;;;;;5085584;28;20210;-65
2023/08/30 09:13:45;;;;;;;1.80;1.70;;;18.00;99.90;;;;;;5085598;28;20690;-67
2023/08/30 09:16:16;;;;;;;1.60;1.50;;;18.00;99.90;;;;;;5085879;28;20298;-65
2023/08/30 09:18:43;;;;;;;1.70;1.60;;;18.10;99.90;;;;;;5085868;28;20545;-65
2023/08/30 09:21:10;;;;;;;1.83;1.73;;;18.20;99.90;;;;;;5085491;28;20325;-68
2023/08/30 09:23:37;;;;;;;1.97;1.73;;;18.20;99.90;;;;;;5087373;28;20239;-68
2023/08/30 09:26:05;;;;;;;2.57;1.80;;;18.20;99.90;;;;;;5084788;28;20237;-68
2023/08/30 09:28:43;;;;;;;1.90;1.80;;;18.40;99.90;;;;;;5085094;28;20205;-67
2023/08/30 09:31:19;;;;;;;2.33;2.00;;;18.40;99.90;;;;;;5074095;28;20744;-68
2023/08/30 09:33:47;;;;;;;5.63;2.13;;;18.50;99.90;;;;;;5064461;28;20198;-67
2023/08/30 09:36:14;;;;;;;2.30;2.10;;;18.60;99.90;;;;;;5064596;28;20211;-68
2023/08/30 09:38:41;;;;;;;1.70;1.60;;;18.70;99.90;;;;;;5067962;28;20214;-68
2023/08/30 09:41:08;;;;;;;4.60;2.20;;;18.70;99.90;;;;;;5105180;28;20210;-68
2023/08/30 09:43:42;;;;;;;2.40;2.20;;;18.80;99.90;;;;;;5088253;28;20295;-68
2023/08/30 09:46:09;;;;;;;2.40;2.20;;;18.80;99.90;;;;;;5084655;28;20246;-68
2023/08/30 09:48:39;;;;;;;2.10;2.00;;;18.80;99.90;;;;;;5084709;28;20318;-68
2023/08/30 09:51:10;;;;;;;2.40;2.00;;;18.80;99.90;;;;;;5085219;28;20191;-68
2023/08/30 09:53:43;;;;;;;2.13;2.00;;;18.80;99.90;;;;;;5084615;28;20568;-68
2023/08/30 09:56:14;;;;;;;2.13;2.00;;;18.80;99.90;;;;;;5085134;28;20206;-68
2023/08/30 09:58:43;;;;;;;2.20;2.00;;;18.80;99.90;;;;;;5084192;28;20203;-68
2023/08/30 10:01:11;;;;;;;3.23;1.50;;;19.00;99.90;;;;;;5083981;28;20242;-68
2023/08/30 10:03:38;;;;;;;2.67;1.47;;;19.00;99.90;;;;;;5083869;28;20289;-68
2023/08/30 10:06:06;;;;;;;1.40;1.40;;;19.00;99.90;;;;;;5084310;28;20225;-68
2023/08/30 10:08:36;;;;;;;2.43;1.93;;;19.00;99.90;;;;;;5083357;28;20293;-67
2023/08/30 10:11:04;;;;;;;3.27;1.80;;;19.10;99.90;;;;;;5064488;28;20222;-68
2023/08/30 10:13:31;;;;;;;2.17;1.63;;;19.20;99.90;;;;;;5064607;28;20244;-68
2023/08/30 10:16:05;;;;;;;1.90;1.80;;;19.40;99.90;;;;;;5064511;28;20203;-65
2023/08/30 10:18:34;;;;;;;2.83;1.60;;;19.50;99.90;;;;;;5064190;28;20295;-65
2023/08/30 10:21:03;;;;;;;1.70;1.60;;;19.40;99.90;;;;;;5077503;28;20230;-65
2023/08/30 10:23:31;;;;;;;2.23;1.60;;;19.40;99.90;;;;;;5083684;28;20226;-65
2023/08/30 10:26:00;;;;;;;1.50;1.40;;;19.40;99.90;;;;;;5084048;28;20234;-65
2023/08/30 10:28:28;;;;;;;1.57;1.47;;;19.50;99.90;;;;;;5084421;28;20219;-65
2023/08/30 10:30:55;;;;;;;2.57;1.40;;;19.60;99.90;;;;;;5075377;28;20203;-65
2023/08/30 10:33:25;;;;;;;3.00;1.20;;;19.60;99.90;;;;;;5064243;28;20321;-65
2023/08/30 10:35:55;;;;;;;1.10;1.10;;;19.70;99.90;;;;;;5063859;28;20211;-65
2023/08/30 10:38:29;;;;;;;1.17;1.07;;;19.70;99.90;;;;;;5068331;28;20207;-65
2023/08/30 10:41:06;;;;;;;1.23;1.13;;;19.70;99.90;;;;;;5063516;28;20204;-66
2023/08/30 10:43:37;;;;;;;1.10;1.10;;;19.80;99.90;;;;;;5068568;28;20277;-66
2023/08/30 10:46:06;;;;;;;1.73;1.13;;;19.90;99.90;;;;;;5084082;28;20203;-65
2023/08/30 10:48:42;;;;;;;1.27;1.10;;;19.90;99.90;;;;;;5084325;28;20215;-65
2023/08/30 10:51:22;;;;;;;1.50;1.40;;;20.00;99.90;;;;;;5084100;28;20619;-65
2023/08/30 10:53:58;;;;;;;1.37;1.27;;;20.10;99.90;;;;;;5084105;28;20285;-66
2023/08/30 10:56:30;;;;;;;1.40;1.30;;;20.20;99.90;;;;;;5084276;28;20668;-66
2023/08/30 10:58:57;;;;;;;1.53;1.10;;;20.30;99.90;;;;;;5084366;28;20207;-66
2023/08/30 11:01:25;;;;;;;2.53;1.27;;;20.30;99.90;;;;;;5084460;28;20266;-66
2023/08/30 11:03:53;;;;;;;1.50;1.10;;;20.40;99.90;;;;;;5084406;28;20203;-66
2023/08/30 11:06:21;;;;;;;1.50;1.33;;;20.50;99.90;;;;;;5084105;28;20207;-66
2023/08/30 11:08:49;;;;;;;1.60;1.50;;;20.60;99.90;;;;;;5084074;28;20325;-66
2023/08/30 11:11:16;;;;;;;1.93;1.50;;;20.60;99.90;;;;;;5084011;28;20206;-66
2023/08/30 11:13:43;;;;;;;1.60;1.50;;;20.60;99.90;;;;;;5085700;28;20242;-66
2023/08/30 11:16:11;;;;;;;3.03;1.20;;;20.70;99.90;;;;;;5085189;28;20207;-66
2023/08/30 11:18:39;;;;;;;2.60;1.40;;;20.70;99.90;;;;;;5088009;28;20248;-66
2023/08/30 11:21:09;;;;;;;1.67;1.55;;;20.70;99.90;;;;;;5087553;28;20229;-66
2023/08/30 11:23:35;;;;;;;1.55;1.45;;;20.70;99.90;;;;;;5087430;28;20210;-66
2023/08/30 11:26:04;;;;;;;1.67;1.20;;;20.70;99.90;;;;;;5087972;28;20294;-66
2023/08/30 11:28:31;;;;;;;2.37;1.80;;;20.70;99.90;;;;;;5087771;28;20236;-66
2023/08/30 11:30:58;;;;;;;2.20;1.80;;;20.70;99.90;;;;;;5078264;28;20293;-66
2023/08/30 11:33:25;;;;;;;2.10;1.73;;;20.50;99.90;;;;;;5067631;28;20295;-66
2023/08/30 11:35:53;;;;;;;2.43;1.67;;;20.50;99.90;;;;;;5082287;28;20297;-66
2023/08/30 11:38:22;;;;;;;1.80;1.40;;;20.50;99.90;;;;;;5087285;28;20215;-66
2023/08/30 11:40:51;;;;;;;1.97;1.87;;;20.50;99.90;;;;;;5106877;28;20221;-66
2023/08/30 11:43:18;;;;;;;2.13;2.00;;;20.50;99.90;;;;;;5107842;28;20876;-66
2023/08/30 11:45:45;;;;;;;2.57;1.97;;;20.40;99.90;;;;;;5107769;28;20206;-66
2023/08/30 11:48:13;;;;;;;1.77;1.67;;;20.30;99.90;;;;;;5107604;28;20636;-66
2023/08/30 11:50:40;;;;;;;1.60;1.50;;;20.30;99.90;;;;;;5107436;28;20206;-67
2023/08/30 11:53:07;;;;;;;1.70;1.60;;;20.40;99.90;;;;;;5107304;28;20297;-66
2023/08/30 11:55:36;;;;;;;1.70;1.60;;;20.30;99.90;;;;;;5107664;28;20316;-66
2023/08/30 11:58:03;;;;;;;3.30;2.10;;;20.30;99.90;;;;;;5107299;28;20786;-66
2023/08/30 12:00:35;;;;;;;3.40;2.20;;;20.20;99.90;;;;;;5107076;28;20324;-66
2023/08/30 12:03:02;;;;;;;1.93;1.83;;;20.20;99.90;;;;;;5107255;28;20190;-66
2023/08/30 12:05:33;;;;;;;4.33;1.90;;;20.10;99.90;;;;;;5106908;28;20305;-66
2023/08/30 12:08:00;;;;;;;2.60;1.80;;;20.10;99.90;;;;;;5106656;28;20968;-66
2023/08/30 12:10:29;;;;;;;3.10;1.80;;;19.90;99.90;;;;;;5106958;28;20321;-66
2023/08/30 12:12:58;;;;;;;2.00;1.90;;;19.80;99.90;;;;;;5095936;28;20203;-66
2023/08/30 12:15:27;;;;;;;2.80;1.80;;;19.70;99.90;;;;;;5086881;28;20326;-66
2023/08/30 12:17:55;;;;;;;3.77;2.10;;;19.70;99.90;;;;;;5086068;28;20635;-66
2023/08/30 12:20:23;;;;;;;2.60;1.60;;;19.60;99.90;;;;;;5086361;28;20242;-66
2023/08/30 12:22:51;;;;;;;3.60;1.80;;;19.60;99.90;;;;;;5085602;28;20690;-66
2023/08/30 12:25:19;;;;;;;1.73;1.60;;;19.50;99.90;;;;;;5085337;28;20207;-66
2023/08/30 12:27:46;;;;;;;2.93;1.60;;;19.50;99.90;;;;;;5086049;28;20235;-66
2023/08/30 12:30:16;;;;;;;1.53;1.43;;;19.50;99.90;;;;;;5086157;28;20241;-66
2023/08/30 12:32:43;;;;;;;1.30;1.30;;;19.50;99.90;;;;;;5086051;28;20271;-66
2023/08/30 12:35:10;;;;;;;2.50;1.53;;;19.40;99.90;;;;;;5085608;28;20990;-66
2023/08/30 12:37:37;;;;;;;1.90;1.33;;;19.40;99.90;;;;;;5085980;28;20210;-66
2023/08/30 12:40:05;;;;;;;1.67;1.40;;;19.40;99.90;;;;;;5072325;28;20685;-66
2023/08/30 12:42:32;;;;;;;1.27;1.17;;;19.40;99.90;;;;;;5065505;28;20253;-66
2023/08/30 12:45:00;;;;;;;1.40;1.30;;;19.50;99.90;;;;;;5065473;28;20299;-66
2023/08/30 12:47:28;;;;;;;2.93;1.60;;;19.60;99.90;;;;;;5065990;28;20231;-66
2023/08/30 12:49:55;;;;;;;2.43;1.73;;;19.70;99.90;;;;;;5065906;28;20528;-66
2023/08/30 12:52:22;;;;;;;2.30;1.57;;;19.80;99.90;;;;;;5065543;28;20217;-66